sensor_id;sensor_type;location;lat;lon;timestamp;P1;durP1;ratioP1;P2;durP2;ratioP2
55015;SDS011;40919;43.236;21.590;2023-04-12T00:01:05;35.35;;;24.75;;
55015;SDS011;40919;43.236;21.590;2023-04-12T00:03:31;43.13;;;28.90;;
55015;SDS011;40919;43.236;21.590;2023-04-12T00:06:00;41.33;;;27.88;;
55015;SDS011;40919;43.236;21.590;2023-04-12T00:08:27;55.78;;;33.88;;
55015;SDS011;40919;43.236;21.590;2023-04-12T00:10:57;64.25;;;38.28;;
55015;SDS011;40919;43.236;21.590;2023-04-12T00:13:24;49.58;;;30.27;;
55015;SDS011;40919;43.236;21.590;2023-04-12T00:15:50;42.10;;;27.90;;
55015;SDS011;40919;43.236;21.590;2023-04-12T00:18:16;33.35;;;23.25;;
55015;SDS011;40919;43.236;21.590;2023-04-12T00:20:42;36.60;;;23.50;;
55015;SDS011;40919;43.236;21.590;2023-04-12T00:23:07;50.15;;;33.00;;
55015;SDS011;40919;43.236;21.590;2023-04-12T00:25:37;58.00;;;33.92;;
55015;SDS011;40919;43.236;21.590;2023-04-12T00:28:03;62.42;;;38.55;;
55015;SDS011;40919;43.236;21.590;2023-04-12T00:30:30;54.15;;;33.75;;
55015;SDS011;40919;43.236;21.590;2023-04-12T00:32:56;52.15;;;32.42;;
55015;SDS011;40919;43.236;21.590;2023-04-12T00:35:23;50.80;;;32.97;;
55015;SDS011;40919;43.236;21.590;2023-04-12T00:37:49;58.60;;;37.60;;
55015;SDS011;40919;43.236;21.590;2023-04-12T00:40:15;45.55;;;28.00;;
55015;SDS011;40919;43.236;21.590;2023-04-12T00:42:40;38.33;;;25.70;;
55015;SDS011;40919;43.236;21.590;2023-04-12T00:45:07;34.10;;;21.98;;
55015;SDS011;40919;43.236;21.590;2023-04-12T00:47:36;28.77;;;16.88;;
55015;SDS011;40919;43.236;21.590;2023-04-12T00:50:03;21.90;;;14.32;;
55015;SDS011;40919;43.236;21.590;2023-04-12T00:52:33;19.38;;;14.02;;
55015;SDS011;40919;43.236;21.590;2023-04-12T00:55:03;19.35;;;13.90;;
55015;SDS011;40919;43.236;21.590;2023-04-12T00:57:36;26.35;;;18.45;;
55015;SDS011;40919;43.236;21.590;2023-04-12T01:00:03;27.45;;;19.77;;
55015;SDS011;40919;43.236;21.590;2023-04-12T01:02:32;33.42;;;22.60;;
55015;SDS011;40919;43.236;21.590;2023-04-12T01:04:58;37.05;;;23.48;;
55015;SDS011;40919;43.236;21.590;2023-04-12T01:15:17;36.25;;;22.05;;
55015;SDS011;40919;43.236;21.590;2023-04-12T01:17:57;42.40;;;26.83;;
55015;SDS011;40919;43.236;21.590;2023-04-12T01:20:29;32.70;;;20.70;;
55015;SDS011;40919;43.236;21.590;2023-04-12T01:25:50;25.83;;;17.63;;
55015;SDS011;40919;43.236;21.590;2023-04-12T01:28:42;27.88;;;19.48;;
55015;SDS011;40919;43.236;21.590;2023-04-12T01:31:09;31.15;;;21.10;;
55015;SDS011;40919;43.236;21.590;2023-04-12T01:33:37;42.22;;;25.83;;
55015;SDS011;40919;43.236;21.590;2023-04-12T01:36:08;36.45;;;24.63;;
55015;SDS011;40919;43.236;21.590;2023-04-12T01:38:45;29.98;;;19.20;;
55015;SDS011;40919;43.236;21.590;2023-04-12T01:41:12;28.10;;;17.88;;
55015;SDS011;40919;43.236;21.590;2023-04-12T01:43:45;26.33;;;15.63;;
55015;SDS011;40919;43.236;21.590;2023-04-12T01:46:12;26.48;;;16.77;;
55015;SDS011;40919;43.236;21.590;2023-04-12T01:48:41;25.67;;;17.42;;
55015;SDS011;40919;43.236;21.590;2023-04-12T01:54:03;19.17;;;13.40;;
55015;SDS011;40919;43.236;21.590;2023-04-12T01:56:36;21.27;;;14.93;;
55015;SDS011;40919;43.236;21.590;2023-04-12T01:59:05;24.63;;;13.93;;
55015;SDS011;40919;43.236;21.590;2023-04-12T02:01:33;19.85;;;11.75;;
55015;SDS011;40919;43.236;21.590;2023-04-12T02:03:58;15.05;;;10.27;;
55015;SDS011;40919;43.236;21.590;2023-04-12T02:06:26;11.35;;;7.82;;
55015;SDS011;40919;43.236;21.590;2023-04-12T02:09:10;12.07;;;8.63;;
55015;SDS011;40919;43.236;21.590;2023-04-12T02:11:36;14.70;;;9.70;;
55015;SDS011;40919;43.236;21.590;2023-04-12T02:14:02;13.02;;;8.75;;
55015;SDS011;40919;43.236;21.590;2023-04-12T02:16:27;14.15;;;8.55;;
55015;SDS011;40919;43.236;21.590;2023-04-12T02:18:53;13.45;;;7.93;;
55015;SDS011;40919;43.236;21.590;2023-04-12T02:21:21;13.32;;;7.75;;
55015;SDS011;40919;43.236;21.590;2023-04-12T02:23:47;14.48;;;8.73;;
55015;SDS011;40919;43.236;21.590;2023-04-12T02:26:12;12.57;;;7.43;;
55015;SDS011;40919;43.236;21.590;2023-04-12T02:28:38;12.00;;;8.32;;
55015;SDS011;40919;43.236;21.590;2023-04-12T02:31:04;10.77;;;7.65;;
55015;SDS011;40919;43.236;21.590;2023-04-12T02:33:31;13.65;;;8.40;;
55015;SDS011;40919;43.236;21.590;2023-04-12T02:35:57;12.18;;;8.27;;
55015;SDS011;40919;43.236;21.590;2023-04-12T02:38:23;11.63;;;6.93;;
55015;SDS011;40919;43.236;21.590;2023-04-12T02:40:49;10.77;;;7.50;;
55015;SDS011;40919;43.236;21.590;2023-04-12T02:43:15;12.63;;;7.72;;
55015;SDS011;40919;43.236;21.590;2023-04-12T02:45:41;8.85;;;6.45;;
55015;SDS011;40919;43.236;21.590;2023-04-12T02:48:07;11.73;;;7.47;;
55015;SDS011;40919;43.236;21.590;2023-04-12T02:50:32;10.63;;;7.50;;
55015;SDS011;40919;43.236;21.590;2023-04-12T02:52:58;12.52;;;7.75;;
55015;SDS011;40919;43.236;21.590;2023-04-12T02:55:24;10.00;;;7.03;;
55015;SDS011;40919;43.236;21.590;2023-04-12T02:57:51;12.80;;;7.18;;
55015;SDS011;40919;43.236;21.590;2023-04-12T03:00:17;10.30;;;7.10;;
55015;SDS011;40919;43.236;21.590;2023-04-12T03:02:44;11.70;;;7.07;;
55015;SDS011;40919;43.236;21.590;2023-04-12T03:05:09;11.75;;;7.43;;
55015;SDS011;40919;43.236;21.590;2023-04-12T03:07:36;10.20;;;6.47;;
55015;SDS011;40919;43.236;21.590;2023-04-12T03:10:02;8.93;;;5.53;;
55015;SDS011;40919;43.236;21.590;2023-04-12T03:12:32;9.48;;;5.55;;
55015;SDS011;40919;43.236;21.590;2023-04-12T03:14:57;8.45;;;6.47;;
55015;SDS011;40919;43.236;21.590;2023-04-12T03:17:23;8.35;;;5.38;;
55015;SDS011;40919;43.236;21.590;2023-04-12T03:19:49;9.63;;;6.03;;
55015;SDS011;40919;43.236;21.590;2023-04-12T03:22:15;8.10;;;5.68;;
55015;SDS011;40919;43.236;21.590;2023-04-12T03:24:40;10.05;;;5.85;;
55015;SDS011;40919;43.236;21.590;2023-04-12T03:27:09;10.95;;;5.75;;
55015;SDS011;40919;43.236;21.590;2023-04-12T03:29:35;10.15;;;5.78;;
55015;SDS011;40919;43.236;21.590;2023-04-12T03:32:01;8.38;;;5.18;;
55015;SDS011;40919;43.236;21.590;2023-04-12T03:34:27;8.63;;;5.18;;
55015;SDS011;40919;43.236;21.590;2023-04-12T03:36:59;8.33;;;4.43;;
55015;SDS011;40919;43.236;21.590;2023-04-12T03:39:26;8.52;;;5.10;;
55015;SDS011;40919;43.236;21.590;2023-04-12T03:41:52;7.13;;;5.35;;
55015;SDS011;40919;43.236;21.590;2023-04-12T03:44:19;7.70;;;5.20;;
55015;SDS011;40919;43.236;21.590;2023-04-12T03:46:45;8.23;;;5.50;;
55015;SDS011;40919;43.236;21.590;2023-04-12T03:49:12;7.82;;;5.20;;
55015;SDS011;40919;43.236;21.590;2023-04-12T03:51:38;8.57;;;4.50;;
55015;SDS011;40919;43.236;21.590;2023-04-12T03:54:10;11.32;;;5.07;;
55015;SDS011;40919;43.236;21.590;2023-04-12T03:56:37;6.47;;;4.22;;
55015;SDS011;40919;43.236;21.590;2023-04-12T03:59:04;6.28;;;3.90;;
55015;SDS011;40919;43.236;21.590;2023-04-12T04:01:31;5.82;;;3.42;;
55015;SDS011;40919;43.236;21.590;2023-04-12T04:03:58;7.80;;;4.13;;
55015;SDS011;40919;43.236;21.590;2023-04-12T04:06:24;6.38;;;3.70;;
55015;SDS011;40919;43.236;21.590;2023-04-12T04:08:50;6.18;;;3.67;;
55015;SDS011;40919;43.236;21.590;2023-04-12T04:11:16;8.20;;;4.07;;
55015;SDS011;40919;43.236;21.590;2023-04-12T04:13:42;8.07;;;3.90;;
55015;SDS011;40919;43.236;21.590;2023-04-12T04:16:08;5.22;;;3.67;;
55015;SDS011;40919;43.236;21.590;2023-04-12T04:18:37;6.38;;;3.88;;
55015;SDS011;40919;43.236;21.590;2023-04-12T04:21:02;5.68;;;3.95;;
55015;SDS011;40919;43.236;21.590;2023-04-12T04:23:30;7.22;;;4.05;;
55015;SDS011;40919;43.236;21.590;2023-04-12T04:26:03;8.18;;;4.75;;
55015;SDS011;40919;43.236;21.590;2023-04-12T04:28:30;9.80;;;4.30;;
55015;SDS011;40919;43.236;21.590;2023-04-12T04:30:58;7.90;;;4.72;;
55015;SDS011;40919;43.236;21.590;2023-04-12T04:33:28;7.32;;;4.60;;
55015;SDS011;40919;43.236;21.590;2023-04-12T04:35:54;7.22;;;4.15;;
55015;SDS011;40919;43.236;21.590;2023-04-12T04:38:20;7.20;;;4.80;;
55015;SDS011;40919;43.236;21.590;2023-04-12T04:40:49;9.63;;;5.00;;
55015;SDS011;40919;43.236;21.590;2023-04-12T04:43:19;8.55;;;5.07;;
55015;SDS011;40919;43.236;21.590;2023-04-12T04:45:46;8.10;;;5.13;;
55015;SDS011;40919;43.236;21.590;2023-04-12T04:48:15;12.90;;;6.53;;
55015;SDS011;40919;43.236;21.590;2023-04-12T04:50:42;9.75;;;5.82;;
55015;SDS011;40919;43.236;21.590;2023-04-12T04:53:08;6.72;;;3.88;;
55015;SDS011;40919;43.236;21.590;2023-04-12T04:55:34;11.88;;;4.63;;
55015;SDS011;40919;43.236;21.590;2023-04-12T04:58:00;9.25;;;5.18;;
55015;SDS011;40919;43.236;21.590;2023-04-12T05:00:26;16.75;;;9.15;;
55015;SDS011;40919;43.236;21.590;2023-04-12T05:02:51;10.40;;;7.05;;
55015;SDS011;40919;43.236;21.590;2023-04-12T05:05:17;12.23;;;6.72;;
55015;SDS011;40919;43.236;21.590;2023-04-12T05:07:47;12.18;;;7.05;;
55015;SDS011;40919;43.236;21.590;2023-04-12T05:10:13;16.90;;;9.32;;
55015;SDS011;40919;43.236;21.590;2023-04-12T05:12:39;18.23;;;11.25;;
55015;SDS011;40919;43.236;21.590;2023-04-12T05:15:05;16.13;;;9.52;;
55015;SDS011;40919;43.236;21.590;2023-04-12T05:17:31;13.65;;;8.82;;
55015;SDS011;40919;43.236;21.590;2023-04-12T05:19:58;10.45;;;5.70;;
55015;SDS011;40919;43.236;21.590;2023-04-12T05:22:25;8.90;;;4.78;;
55015;SDS011;40919;43.236;21.590;2023-04-12T05:24:53;8.93;;;5.30;;
55015;SDS011;40919;43.236;21.590;2023-04-12T05:27:20;8.13;;;4.60;;
55015;SDS011;40919;43.236;21.590;2023-04-12T05:29:46;6.05;;;3.85;;
55015;SDS011;40919;43.236;21.590;2023-04-12T05:32:11;19.20;;;11.02;;
55015;SDS011;40919;43.236;21.590;2023-04-12T05:34:37;8.95;;;5.70;;
55015;SDS011;40919;43.236;21.590;2023-04-12T05:37:03;11.60;;;7.28;;
55015;SDS011;40919;43.236;21.590;2023-04-12T05:39:29;16.25;;;10.35;;
55015;SDS011;40919;43.236;21.590;2023-04-12T05:41:55;10.35;;;5.60;;
55015;SDS011;40919;43.236;21.590;2023-04-12T05:44:21;9.27;;;4.43;;
55015;SDS011;40919;43.236;21.590;2023-04-12T05:46:47;7.63;;;5.07;;
55015;SDS011;40919;43.236;21.590;2023-04-12T05:49:12;8.63;;;4.75;;
55015;SDS011;40919;43.236;21.590;2023-04-12T05:51:38;5.80;;;3.50;;
55015;SDS011;40919;43.236;21.590;2023-04-12T05:54:04;6.75;;;4.00;;
55015;SDS011;40919;43.236;21.590;2023-04-12T05:56:31;6.05;;;4.05;;
55015;SDS011;40919;43.236;21.590;2023-04-12T05:58:57;10.68;;;6.30;;
55015;SDS011;40919;43.236;21.590;2023-04-12T06:01:25;6.20;;;3.90;;
55015;SDS011;40919;43.236;21.590;2023-04-12T06:03:55;8.65;;;4.28;;
55015;SDS011;40919;43.236;21.590;2023-04-12T06:06:22;8.50;;;4.80;;
55015;SDS011;40919;43.236;21.590;2023-04-12T06:08:48;10.82;;;6.10;;
55015;SDS011;40919;43.236;21.590;2023-04-12T06:11:13;7.88;;;4.70;;
55015;SDS011;40919;43.236;21.590;2023-04-12T06:13:40;9.25;;;5.65;;
55015;SDS011;40919;43.236;21.590;2023-04-12T06:16:06;11.07;;;6.78;;
55015;SDS011;40919;43.236;21.590;2023-04-12T06:18:32;9.77;;;3.88;;
55015;SDS011;40919;43.236;21.590;2023-04-12T06:20:58;7.10;;;4.50;;
55015;SDS011;40919;43.236;21.590;2023-04-12T06:23:24;8.02;;;4.57;;
55015;SDS011;40919;43.236;21.590;2023-04-12T06:25:51;7.47;;;4.15;;
55015;SDS011;40919;43.236;21.590;2023-04-12T06:28:17;6.72;;;4.43;;
55015;SDS011;40919;43.236;21.590;2023-04-12T06:30:43;6.82;;;4.47;;
55015;SDS011;40919;43.236;21.590;2023-04-12T06:33:09;6.75;;;3.92;;
55015;SDS011;40919;43.236;21.590;2023-04-12T06:35:35;8.02;;;4.78;;
55015;SDS011;40919;43.236;21.590;2023-04-12T06:38:01;6.18;;;4.03;;
55015;SDS011;40919;43.236;21.590;2023-04-12T06:40:27;11.00;;;7.28;;
55015;SDS011;40919;43.236;21.590;2023-04-12T06:42:53;7.85;;;4.43;;
55015;SDS011;40919;43.236;21.590;2023-04-12T06:45:18;9.00;;;3.75;;
55015;SDS011;40919;43.236;21.590;2023-04-12T06:47:44;6.90;;;3.70;;
55015;SDS011;40919;43.236;21.590;2023-04-12T06:50:11;6.10;;;4.10;;
55015;SDS011;40919;43.236;21.590;2023-04-12T06:52:37;7.43;;;5.20;;
55015;SDS011;40919;43.236;21.590;2023-04-12T06:55:03;15.38;;;10.73;;
55015;SDS011;40919;43.236;21.590;2023-04-12T06:57:29;9.68;;;6.13;;
55015;SDS011;40919;43.236;21.590;2023-04-12T06:59:55;9.65;;;5.65;;
55015;SDS011;40919;43.236;21.590;2023-04-12T07:02:21;9.65;;;6.13;;
55015;SDS011;40919;43.236;21.590;2023-04-12T07:04:50;10.70;;;6.45;;
55015;SDS011;40919;43.236;21.590;2023-04-12T07:07:17;8.35;;;5.60;;
55015;SDS011;40919;43.236;21.590;2023-04-12T07:09:44;9.35;;;5.40;;
55015;SDS011;40919;43.236;21.590;2023-04-12T07:12:11;6.75;;;4.15;;
55015;SDS011;40919;43.236;21.590;2023-04-12T07:14:37;6.00;;;3.65;;
55015;SDS011;40919;43.236;21.590;2023-04-12T07:17:04;7.70;;;4.43;;
55015;SDS011;40919;43.236;21.590;2023-04-12T07:19:29;9.02;;;5.25;;
55015;SDS011;40919;43.236;21.590;2023-04-12T07:21:56;7.53;;;4.65;;
55015;SDS011;40919;43.236;21.590;2023-04-12T07:24:22;9.82;;;5.85;;
55015;SDS011;40919;43.236;21.590;2023-04-12T07:26:48;9.50;;;5.50;;
55015;SDS011;40919;43.236;21.590;2023-04-12T07:29:13;5.82;;;3.45;;
55015;SDS011;40919;43.236;21.590;2023-04-12T07:31:41;6.95;;;3.88;;
55015;SDS011;40919;43.236;21.590;2023-04-12T07:34:06;9.23;;;3.80;;
55015;SDS011;40919;43.236;21.590;2023-04-12T07:36:32;5.80;;;3.67;;
55015;SDS011;40919;43.236;21.590;2023-04-12T07:38:58;6.88;;;3.92;;
55015;SDS011;40919;43.236;21.590;2023-04-12T07:41:23;9.05;;;3.85;;
55015;SDS011;40919;43.236;21.590;2023-04-12T07:43:49;6.05;;;3.60;;
55015;SDS011;40919;43.236;21.590;2023-04-12T07:46:15;6.57;;;3.28;;
55015;SDS011;40919;43.236;21.590;2023-04-12T07:48:42;5.50;;;3.20;;
55015;SDS011;40919;43.236;21.590;2023-04-12T07:51:08;5.95;;;3.10;;
55015;SDS011;40919;43.236;21.590;2023-04-12T07:53:33;6.60;;;4.15;;
55015;SDS011;40919;43.236;21.590;2023-04-12T07:55:59;5.40;;;2.92;;
55015;SDS011;40919;43.236;21.590;2023-04-12T07:58:27;7.20;;;4.10;;
55015;SDS011;40919;43.236;21.590;2023-04-12T08:00:53;5.18;;;3.20;;
55015;SDS011;40919;43.236;21.590;2023-04-12T08:03:21;4.53;;;2.83;;
55015;SDS011;40919;43.236;21.590;2023-04-12T08:05:46;5.78;;;3.42;;
55015;SDS011;40919;43.236;21.590;2023-04-12T08:08:17;5.93;;;3.30;;
55015;SDS011;40919;43.236;21.590;2023-04-12T08:10:44;6.65;;;3.67;;
55015;SDS011;40919;43.236;21.590;2023-04-12T08:13:11;7.00;;;3.13;;
55015;SDS011;40919;43.236;21.590;2023-04-12T08:15:37;9.43;;;4.68;;
55015;SDS011;40919;43.236;21.590;2023-04-12T08:18:03;6.55;;;3.85;;
55015;SDS011;40919;43.236;21.590;2023-04-12T08:20:30;6.35;;;3.67;;
55015;SDS011;40919;43.236;21.590;2023-04-12T08:22:56;5.72;;;3.00;;
55015;SDS011;40919;43.236;21.590;2023-04-12T08:25:22;5.25;;;3.03;;
55015;SDS011;40919;43.236;21.590;2023-04-12T08:27:48;5.50;;;3.30;;
55015;SDS011;40919;43.236;21.590;2023-04-12T08:30:15;5.25;;;2.53;;
55015;SDS011;40919;43.236;21.590;2023-04-12T08:32:41;4.88;;;2.38;;
55015;SDS011;40919;43.236;21.590;2023-04-12T08:35:07;4.85;;;2.60;;
55015;SDS011;40919;43.236;21.590;2023-04-12T08:37:34;6.20;;;2.83;;
55015;SDS011;40919;43.236;21.590;2023-04-12T08:40:02;4.97;;;2.53;;
55015;SDS011;40919;43.236;21.590;2023-04-12T08:42:32;5.43;;;2.45;;
55015;SDS011;40919;43.236;21.590;2023-04-12T08:45:03;8.30;;;3.75;;
55015;SDS011;40919;43.236;21.590;2023-04-12T08:47:33;6.90;;;4.10;;
55015;SDS011;40919;43.236;21.590;2023-04-12T08:50:01;6.25;;;3.20;;
55015;SDS011;40919;43.236;21.590;2023-04-12T08:52:27;6.25;;;2.47;;
55015;SDS011;40919;43.236;21.590;2023-04-12T08:54:54;9.27;;;4.45;;
55015;SDS011;40919;43.236;21.590;2023-04-12T08:57:20;8.40;;;4.63;;
55015;SDS011;40919;43.236;21.590;2023-04-12T08:59:46;5.93;;;3.50;;
55015;SDS011;40919;43.236;21.590;2023-04-12T09:02:14;7.22;;;2.67;;
55015;SDS011;40919;43.236;21.590;2023-04-12T09:04:49;4.88;;;2.33;;
55015;SDS011;40919;43.236;21.590;2023-04-12T09:07:17;6.57;;;2.42;;
55015;SDS011;40919;43.236;21.590;2023-04-12T09:09:44;4.80;;;2.90;;
55015;SDS011;40919;43.236;21.590;2023-04-12T09:12:12;6.10;;;2.88;;
55015;SDS011;40919;43.236;21.590;2023-04-12T09:14:39;7.32;;;3.50;;
55015;SDS011;40919;43.236;21.590;2023-04-12T09:17:21;5.05;;;2.75;;
55015;SDS011;40919;43.236;21.590;2023-04-12T09:19:48;4.93;;;2.42;;
55015;SDS011;40919;43.236;21.590;2023-04-12T09:22:14;6.78;;;3.90;;
55015;SDS011;40919;43.236;21.590;2023-04-12T09:24:47;6.30;;;3.88;;
55015;SDS011;40919;43.236;21.590;2023-04-12T09:27:14;6.57;;;3.08;;
55015;SDS011;40919;43.236;21.590;2023-04-12T09:29:40;9.38;;;4.65;;
55015;SDS011;40919;43.236;21.590;2023-04-12T09:32:07;4.18;;;2.42;;
55015;SDS011;40919;43.236;21.590;2023-04-12T09:34:34;6.93;;;3.45;;
55015;SDS011;40919;43.236;21.590;2023-04-12T09:37:11;4.65;;;2.38;;
55015;SDS011;40919;43.236;21.590;2023-04-12T09:39:40;6.63;;;3.50;;
55015;SDS011;40919;43.236;21.590;2023-04-12T09:42:08;6.13;;;3.38;;
55015;SDS011;40919;43.236;21.590;2023-04-12T09:44:35;8.57;;;4.20;;
55015;SDS011;40919;43.236;21.590;2023-04-12T09:47:01;7.53;;;4.05;;
55015;SDS011;40919;43.236;21.590;2023-04-12T09:49:38;7.35;;;4.50;;
55015;SDS011;40919;43.236;21.590;2023-04-12T09:52:09;11.50;;;6.35;;
55015;SDS011;40919;43.236;21.590;2023-04-12T09:54:41;7.50;;;5.43;;
55015;SDS011;40919;43.236;21.590;2023-04-12T09:57:08;4.97;;;2.22;;
55015;SDS011;40919;43.236;21.590;2023-04-12T09:59:36;7.60;;;3.47;;
55015;SDS011;40919;43.236;21.590;2023-04-12T10:02:12;7.43;;;4.55;;
55015;SDS011;40919;43.236;21.590;2023-04-12T10:04:41;5.53;;;3.28;;
55015;SDS011;40919;43.236;21.590;2023-04-12T10:07:07;9.10;;;6.15;;
55015;SDS011;40919;43.236;21.590;2023-04-12T10:09:33;5.38;;;3.65;;
55015;SDS011;40919;43.236;21.590;2023-04-12T10:12:02;5.47;;;2.40;;
55015;SDS011;40919;43.236;21.590;2023-04-12T10:14:28;8.98;;;4.30;;
55015;SDS011;40919;43.236;21.590;2023-04-12T10:16:58;6.55;;;3.67;;
55015;SDS011;40919;43.236;21.590;2023-04-12T10:19:28;5.95;;;3.42;;
55015;SDS011;40919;43.236;21.590;2023-04-12T10:21:55;4.65;;;2.45;;
55015;SDS011;40919;43.236;21.590;2023-04-12T10:24:22;6.22;;;3.30;;
55015;SDS011;40919;43.236;21.590;2023-04-12T10:26:49;5.45;;;2.72;;
55015;SDS011;40919;43.236;21.590;2023-04-12T10:29:26;8.18;;;3.65;;
55015;SDS011;40919;43.236;21.590;2023-04-12T10:31:54;7.40;;;4.85;;
55015;SDS011;40919;43.236;21.590;2023-04-12T10:34:29;6.68;;;3.55;;
55015;SDS011;40919;43.236;21.590;2023-04-12T10:36:59;5.68;;;2.75;;
55015;SDS011;40919;43.236;21.590;2023-04-12T10:39:35;7.97;;;5.32;;
55015;SDS011;40919;43.236;21.590;2023-04-12T10:44:40;5.78;;;3.10;;
55015;SDS011;40919;43.236;21.590;2023-04-12T10:47:06;4.30;;;2.30;;
55015;SDS011;40919;43.236;21.590;2023-04-12T10:49:33;5.03;;;2.70;;
55015;SDS011;40919;43.236;21.590;2023-04-12T10:56:56;4.50;;;2.47;;
55015;SDS011;40919;43.236;21.590;2023-04-12T10:59:22;3.75;;;1.90;;
55015;SDS011;40919;43.236;21.590;2023-04-12T11:04:35;5.47;;;2.65;;
55015;SDS011;40919;43.236;21.590;2023-04-12T11:07:02;4.32;;;1.90;;
55015;SDS011;40919;43.236;21.590;2023-04-12T11:14:37;8.00;;;4.63;;
55015;SDS011;40919;43.236;21.590;2023-04-12T11:19:35;4.85;;;1.77;;
55015;SDS011;40919;43.236;21.590;2023-04-12T11:22:29;4.72;;;1.85;;
55015;SDS011;40919;43.236;21.590;2023-04-12T11:25:00;4.85;;;2.00;;
55015;SDS011;40919;43.236;21.590;2023-04-12T11:27:27;3.72;;;1.95;;
55015;SDS011;40919;43.236;21.590;2023-04-12T11:29:55;5.70;;;3.03;;
55015;SDS011;40919;43.236;21.590;2023-04-12T11:32:22;6.03;;;3.00;;
55015;SDS011;40919;43.236;21.590;2023-04-12T11:34:51;4.30;;;2.40;;
55015;SDS011;40919;43.236;21.590;2023-04-12T11:37:19;5.43;;;2.55;;
55015;SDS011;40919;43.236;21.590;2023-04-12T11:39:45;6.97;;;3.67;;
55015;SDS011;40919;43.236;21.590;2023-04-12T11:42:16;4.38;;;2.20;;
55015;SDS011;40919;43.236;21.590;2023-04-12T11:44:47;4.80;;;1.60;;
55015;SDS011;40919;43.236;21.590;2023-04-12T11:47:14;3.90;;;1.88;;
55015;SDS011;40919;43.236;21.590;2023-04-12T11:49:45;3.00;;;1.40;;
55015;SDS011;40919;43.236;21.590;2023-04-12T11:52:15;3.53;;;1.70;;
55015;SDS011;40919;43.236;21.590;2023-04-12T11:54:45;5.30;;;2.05;;
55015;SDS011;40919;43.236;21.590;2023-04-12T11:57:18;6.78;;;2.40;;
55015;SDS011;40919;43.236;21.590;2023-04-12T11:59:44;3.53;;;1.80;;
55015;SDS011;40919;43.236;21.590;2023-04-12T12:02:11;3.90;;;1.92;;
55015;SDS011;40919;43.236;21.590;2023-04-12T12:04:45;3.38;;;1.55;;
55015;SDS011;40919;43.236;21.590;2023-04-12T12:07:13;3.85;;;1.90;;
55015;SDS011;40919;43.236;21.590;2023-04-12T12:09:41;8.52;;;3.65;;
55015;SDS011;40919;43.236;21.590;2023-04-12T12:12:09;4.07;;;2.20;;
55015;SDS011;40919;43.236;21.590;2023-04-12T12:14:36;6.30;;;2.60;;
55015;SDS011;40919;43.236;21.590;2023-04-12T12:17:02;4.53;;;2.33;;
55015;SDS011;40919;43.236;21.590;2023-04-12T12:19:37;10.30;;;5.82;;
55015;SDS011;40919;43.236;21.590;2023-04-12T12:24:48;8.38;;;4.10;;
55015;SDS011;40919;43.236;21.590;2023-04-12T12:27:22;6.20;;;2.67;;
55015;SDS011;40919;43.236;21.590;2023-04-12T12:29:53;4.30;;;2.60;;
55015;SDS011;40919;43.236;21.590;2023-04-12T12:32:19;4.75;;;2.28;;
55015;SDS011;40919;43.236;21.590;2023-04-12T12:34:51;5.13;;;2.67;;
55015;SDS011;40919;43.236;21.590;2023-04-12T12:37:24;7.93;;;3.40;;
55015;SDS011;40919;43.236;21.590;2023-04-12T12:42:30;10.05;;;5.65;;
55015;SDS011;40919;43.236;21.590;2023-04-12T12:44:56;4.82;;;2.80;;
55015;SDS011;40919;43.236;21.590;2023-04-12T12:47:22;5.50;;;3.45;;
55015;SDS011;40919;43.236;21.590;2023-04-12T12:49:47;5.13;;;1.88;;
55015;SDS011;40919;43.236;21.590;2023-04-12T12:52:13;8.68;;;4.75;;
55015;SDS011;40919;43.236;21.590;2023-04-12T12:54:39;7.50;;;3.40;;
55015;SDS011;40919;43.236;21.590;2023-04-12T12:57:05;15.70;;;11.48;;
55015;SDS011;40919;43.236;21.590;2023-04-12T12:59:31;12.23;;;7.10;;
55015;SDS011;40919;43.236;21.590;2023-04-12T13:01:57;4.78;;;2.70;;
55015;SDS011;40919;43.236;21.590;2023-04-12T13:04:22;4.13;;;2.13;;
55015;SDS011;40919;43.236;21.590;2023-04-12T13:06:49;4.28;;;2.30;;
55015;SDS011;40919;43.236;21.590;2023-04-12T13:09:16;6.03;;;3.55;;
55015;SDS011;40919;43.236;21.590;2023-04-12T13:11:42;7.40;;;5.00;;
55015;SDS011;40919;43.236;21.590;2023-04-12T13:14:07;4.80;;;2.13;;
55015;SDS011;40919;43.236;21.590;2023-04-12T13:16:33;3.60;;;2.10;;
55015;SDS011;40919;43.236;21.590;2023-04-12T13:18:59;6.25;;;3.80;;
55015;SDS011;40919;43.236;21.590;2023-04-12T13:21:25;6.00;;;3.28;;
55015;SDS011;40919;43.236;21.590;2023-04-12T13:23:51;7.00;;;2.90;;
55015;SDS011;40919;43.236;21.590;2023-04-12T13:26:17;5.95;;;3.47;;
55015;SDS011;40919;43.236;21.590;2023-04-12T13:28:43;4.28;;;2.30;;
55015;SDS011;40919;43.236;21.590;2023-04-12T13:31:09;4.75;;;2.50;;
55015;SDS011;40919;43.236;21.590;2023-04-12T13:33:35;6.57;;;3.38;;
55015;SDS011;40919;43.236;21.590;2023-04-12T13:36:01;7.45;;;3.05;;
55015;SDS011;40919;43.236;21.590;2023-04-12T13:38:26;4.82;;;2.63;;
55015;SDS011;40919;43.236;21.590;2023-04-12T13:40:52;5.68;;;3.05;;
55015;SDS011;40919;43.236;21.590;2023-04-12T13:43:19;4.38;;;2.17;;
55015;SDS011;40919;43.236;21.590;2023-04-12T13:45:45;4.40;;;2.30;;
55015;SDS011;40919;43.236;21.590;2023-04-12T13:48:11;5.40;;;2.22;;
55015;SDS011;40919;43.236;21.590;2023-04-12T13:50:37;6.90;;;3.97;;
55015;SDS011;40919;43.236;21.590;2023-04-12T13:53:02;6.32;;;3.28;;
55015;SDS011;40919;43.236;21.590;2023-04-12T13:55:28;5.78;;;2.80;;
55015;SDS011;40919;43.236;21.590;2023-04-12T13:57:54;8.30;;;4.80;;
55015;SDS011;40919;43.236;21.590;2023-04-12T14:00:19;4.95;;;2.58;;
55015;SDS011;40919;43.236;21.590;2023-04-12T14:02:45;5.80;;;3.50;;
55015;SDS011;40919;43.236;21.590;2023-04-12T14:05:11;9.63;;;5.32;;
55015;SDS011;40919;43.236;21.590;2023-04-12T14:07:37;8.70;;;4.57;;
55015;SDS011;40919;43.236;21.590;2023-04-12T14:10:03;8.90;;;4.55;;
55015;SDS011;40919;43.236;21.590;2023-04-12T14:12:29;8.15;;;5.70;;
55015;SDS011;40919;43.236;21.590;2023-04-12T14:14:55;4.38;;;2.80;;
55015;SDS011;40919;43.236;21.590;2023-04-12T14:17:21;6.82;;;3.90;;
55015;SDS011;40919;43.236;21.590;2023-04-12T14:19:46;6.55;;;3.85;;
55015;SDS011;40919;43.236;21.590;2023-04-12T14:22:12;14.60;;;5.78;;
55015;SDS011;40919;43.236;21.590;2023-04-12T14:24:38;8.77;;;4.95;;
55015;SDS011;40919;43.236;21.590;2023-04-12T14:27:04;6.68;;;3.22;;
55015;SDS011;40919;43.236;21.590;2023-04-12T14:29:29;6.18;;;3.97;;
55015;SDS011;40919;43.236;21.590;2023-04-12T14:31:56;8.07;;;4.45;;
55015;SDS011;40919;43.236;21.590;2023-04-12T14:34:21;7.00;;;3.70;;
55015;SDS011;40919;43.236;21.590;2023-04-12T14:36:47;7.47;;;4.43;;
55015;SDS011;40919;43.236;21.590;2023-04-12T14:39:13;7.78;;;4.82;;
55015;SDS011;40919;43.236;21.590;2023-04-12T14:41:39;9.77;;;4.22;;
55015;SDS011;40919;43.236;21.590;2023-04-12T14:44:05;9.27;;;6.10;;
55015;SDS011;40919;43.236;21.590;2023-04-12T14:46:31;5.15;;;3.15;;
55015;SDS011;40919;43.236;21.590;2023-04-12T14:48:56;7.43;;;3.83;;
55015;SDS011;40919;43.236;21.590;2023-04-12T14:51:25;5.45;;;3.10;;
55015;SDS011;40919;43.236;21.590;2023-04-12T14:53:51;6.25;;;3.67;;
55015;SDS011;40919;43.236;21.590;2023-04-12T14:56:18;16.17;;;9.80;;
55015;SDS011;40919;43.236;21.590;2023-04-12T14:58:44;14.57;;;9.32;;
55015;SDS011;40919;43.236;21.590;2023-04-12T15:01:10;32.00;;;16.90;;
55015;SDS011;40919;43.236;21.590;2023-04-12T15:03:37;19.35;;;11.30;;
55015;SDS011;40919;43.236;21.590;2023-04-12T15:06:06;14.40;;;8.07;;